地図

経路データ

SID SEASON NUMBER BASIN SUBBASIN NAME ISO_TIME NATURE LAT LON WMO_WIND WMO_PRES WMO_AGENCY TRACK_TYPE DIST2LAND LANDFALL IFLAG USA_AGENCY USA_ATCF_ID USA_LAT USA_LON USA_RECORD USA_STATUS USA_WIND USA_PRES USA_SSHS USA_R34_NE USA_R34_SE USA_R34_SW USA_R34_NW USA_R50_NE USA_R50_SE USA_R50_SW USA_R50_NW USA_R64_NE USA_R64_SE USA_R64_SW USA_R64_NW USA_POCI USA_ROCI USA_RMW USA_EYE TOKYO_LAT TOKYO_LON TOKYO_GRADE TOKYO_WIND TOKYO_PRES TOKYO_R50_DIR TOKYO_R50_LONG TOKYO_R50_SHORT TOKYO_R30_DIR TOKYO_R30_LONG TOKYO_R30_SHORT TOKYO_LAND CMA_LAT CMA_LON CMA_CAT CMA_WIND CMA_PRES HKO_LAT HKO_LON HKO_CAT HKO_WIND HKO_PRES NEWDELHI_LAT NEWDELHI_LON NEWDELHI_GRADE NEWDELHI_WIND NEWDELHI_PRES NEWDELHI_CI NEWDELHI_DP NEWDELHI_POCI REUNION_LAT REUNION_LON REUNION_TYPE REUNION_WIND REUNION_PRES REUNION_TNUM REUNION_CI REUNION_RMW REUNION_R34_NE REUNION_R34_SE REUNION_R34_SW REUNION_R34_NW REUNION_R50_NE REUNION_R50_SE REUNION_R50_SW REUNION_R50_NW REUNION_R64_NE REUNION_R64_SE REUNION_R64_SW REUNION_R64_NW BOM_LAT BOM_LON BOM_TYPE BOM_WIND BOM_PRES BOM_TNUM BOM_CI BOM_RMW BOM_R34_NE BOM_R34_SE BOM_R34_SW BOM_R34_NW BOM_R50_NE BOM_R50_SE BOM_R50_SW BOM_R50_NW BOM_R64_NE BOM_R64_SE BOM_R64_SW BOM_R64_NW BOM_ROCI BOM_POCI BOM_EYE BOM_POS_METHOD BOM_PRES_METHOD NADI_LAT NADI_LON NADI_CAT NADI_WIND NADI_PRES WELLINGTON_LAT WELLINGTON_LON WELLINGTON_WIND WELLINGTON_PRES DS824_LAT DS824_LON DS824_STAGE DS824_WIND DS824_PRES TD9636_LAT TD9636_LON TD9636_STAGE TD9636_WIND TD9636_PRES TD9635_LAT TD9635_LON TD9635_WIND TD9635_PRES TD9635_ROCI NEUMANN_LAT NEUMANN_LON NEUMANN_CLASS NEUMANN_WIND NEUMANN_PRES MLC_LAT MLC_LON MLC_CLASS MLC_WIND MLC_PRES USA_GUST BOM_GUST BOM_GUST_PER REUNION_GUST REUNION_GUST_PER USA_SEAHGT USA_SEARAD_NE USA_SEARAD_SE USA_SEARAD_SW USA_SEARAD_NW STORM_SPEED STORM_DIR
1854246N25300 1854 8 NA NA NOT_NAMED 1854-09-02 12:00:00 TS 24.5000 -59.8000 main 908 896 _____________O -1 24.5000 -59.8000 TS 35 6 293
1854246N25300 1854 8 NA NA NOT_NAMED 1854-09-02 15:00:00 TS 24.6126 -60.0873 main 896 885 _____________P -1 24.6126 -60.0873 TS 35 6 290
1854246N25300 1854 8 NA NA NOT_NAMED 1854-09-02 18:00:00 TS 24.7000 -60.4000 main 885 867 _____________O -1 24.7000 -60.4000 TS 35 6 283
1854246N25300 1854 8 NA NA NOT_NAMED 1854-09-02 21:00:00 TS 24.7500 -60.7501 main 870 853 _____________P -1 24.7500 -60.7501 TS 35 6 279
1854246N25300 1854 8 NA NA NOT_NAMED 1854-09-03 00:00:00 TS 24.8000 -61.1000 main 853 842 _____________O -1 24.8000 -61.1000 TS 35 6 283
1854246N25300 1854 8 NA NA NOT_NAMED 1854-09-03 03:00:00 TS 24.8924 -61.4075 main 846 835 _____________P -1 24.8924 -61.4075 TS 35 6 290
1854246N25300 1854 8 NA NA NOT_NAMED 1854-09-03 06:00:00 TS 25.0000 -61.7000 main 840 835 _____________O -1 25.0000 -61.7000 TS 35 6 292
1854246N25300 1854 8 NA NA NOT_NAMED 1854-09-03 09:00:00 TS 25.0997 -61.9701 main 836 831 _____________P -1 25.0997 -61.9701 TS 37 6 290
1854246N25300 1854 8 NA NA NOT_NAMED 1854-09-03 12:00:00 TS 25.2000 -62.3000 main 832 824 _____________O -1 25.2000 -62.3000 TS 40 8 286
1854246N25300 1854 8 NA NA NOT_NAMED 1854-09-03 15:00:00 TS 25.3077 -62.7774 main 823 816 _____________P -1 25.3077 -62.7774 TS 42 9 282
1854246N25300 1854 8 NA NA NOT_NAMED 1854-09-03 18:00:00 TS 25.4000 -63.3000 main 817 806 _____________O -1 25.4000 -63.3000 TS 45 9 280
1854246N25300 1854 8 NA NA NOT_NAMED 1854-09-03 21:00:00 TS 25.4572 -63.7501 main 815 806 _____________P -1 25.4572 -63.7501 TS 45 8 277
1854246N25300 1854 8 NA NA NOT_NAMED 1854-09-04 00:00:00 TS 25.5000 -64.2000 main 806 799 _____________O -1 25.5000 -64.2000 TS 45 9 276
1854246N25300 1854 8 NA NA NOT_NAMED 1854-09-04 03:00:00 TS 25.5425 -64.7001 main 799 798 _____________P -1 25.5425 -64.7001 TS 47 9 276
1854246N25300 1854 8 NA NA NOT_NAMED 1854-09-04 06:00:00 TS 25.6000 -65.2000 main 806 805 _____________O -1 25.6000 -65.2000 TS 50 9 281
1854246N25300 1854 8 NA NA NOT_NAMED 1854-09-04 09:00:00 TS 25.6995 -65.6275 main 809 797 _____________P -1 25.6995 -65.6275 TS 52 8 284
1854246N25300 1854 8 NA NA NOT_NAMED 1854-09-04 12:00:00 TS 25.8000 -66.1000 main 797 771 _____________O -1 25.8000 -66.1000 TS 55 10 279
1854246N25300 1854 8 NA NA NOT_NAMED 1854-09-04 15:00:00 TS 25.8501 -66.7203 main 781 752 _____________P -1 25.8501 -66.7203 TS 57 12 275
1854246N25300 1854 8 NA NA NOT_NAMED 1854-09-04 18:00:00 TS 25.9000 -67.4000 main 752 739 _____________O -1 25.9000 -67.4000 TS 60 12 277
1854246N25300 1854 8 NA NA NOT_NAMED 1854-09-04 21:00:00 TS 25.9922 -68.0500 main 739 700 _____________P -1 25.9922 -68.0500 TS 60 12 280
1854246N25300 1854 8 NA NA NOT_NAMED 1854-09-05 00:00:00 TS 26.1000 -68.7000 main 700 673 _____________O -1 26.1000 -68.7000 TS 60 12 280
1854246N25300 1854 8 NA NA NOT_NAMED 1854-09-05 03:00:00 TS 26.1998 -69.3576 main 668 646 _____________P -1 26.1998 -69.3576 TS 65 12 280
1854246N25300 1854 8 NA NA NOT_NAMED 1854-09-05 06:00:00 TS 26.3000 -70.0000 main 646 630 _____________O -1 26.3000 -70.0000 HU 70 12 280
1854246N25300 1854 8 NA NA NOT_NAMED 1854-09-05 09:00:00 TS 26.3999 -70.6301 main 630 619 _____________P -1 26.3999 -70.6301 HU 75 11 281
1854246N25300 1854 8 NA NA NOT_NAMED 1854-09-05 12:00:00 TS 26.5000 -71.2000 main 619 614 _____________O -1 26.5000 -71.2000 HU 80 10 282
1854246N25300 1854 8 NA NA NOT_NAMED 1854-09-05 15:00:00 TS 26.6072 -71.6800 main 617 612 _____________P -1 26.6072 -71.6800 HU 82 8 284
1854246N25300 1854 8 NA NA NOT_NAMED 1854-09-05 18:00:00 TS 26.7000 -72.1000 main 612 575 _____________O -1 26.7000 -72.1000 HU 85 7 281
1854246N25300 1854 8 NA NA NOT_NAMED 1854-09-05 21:00:00 TS 26.7498 -72.5002 main 575 543 _____________P -1 26.7498 -72.5002 HU 87 7 278
1854246N25300 1854 8 NA NA NOT_NAMED 1854-09-06 00:00:00 TS 26.8000 -72.9000 main 543 510 _____________O -1 26.8000 -72.9000 HU 90 8 281
1854246N25300 1854 8 NA NA NOT_NAMED 1854-09-06 03:00:00 TS 26.8924 -73.3425 main 510 469 _____________P -1 26.8924 -73.3425 HU 92 8 284
1854246N25300 1854 8 NA NA NOT_NAMED 1854-09-06 06:00:00 TS 27.0000 -73.8000 main 469 440 _____________O -1 27.0000 -73.8000 HU 95 8 284
1854246N25300 1854 8 NA NA NOT_NAMED 1854-09-06 09:00:00 TS 27.0923 -74.2427 main 440 404 _____________P -1 27.0923 -74.2427 HU 97 8 284
1854246N25300 1854 8 NA NA NOT_NAMED 1854-09-06 12:00:00 NR 27.2000 -74.7000 main 404 371 _____________O -1 27.2000 -74.7000 MH 100 9 286
1854246N25300 1854 8 NA NA NOT_NAMED 1854-09-06 15:00:00 NR 27.3350 -75.2001 main 371 352 _____________P -1 27.3350 -75.2001 MH 102 9 289
1854246N25300 1854 8 NA NA NOT_NAMED 1854-09-06 18:00:00 NR 27.5000 -75.7000 main 352 342 _____________O -1 27.5000 -75.7000 MH 105 9 293
1854246N25300 1854 8 NA NA NOT_NAMED 1854-09-06 21:00:00 NR 27.6922 -76.1501 main 341 292 _____________P -1 27.6922 -76.1501 MH 107 8 263
1854246N25300 1854 8 NA NA NOT_NAMED 1854-09-07 00:00:00 TS 27.4000 -76.6000 110 hurdat_atl main 292 272 O____________O hurdat_atl AL031854 26.4000 -76.6000 HU 110 3 27.9000 -76.6000 MH 110 9 254
1854246N25300 1854 8 NA NA NOT_NAMED 1854-09-07 03:00:00 TS 27.4539 -77.0997 main 282 253 P____________P AL031854 26.8004 -77.0993 HU 110 3 28.1075 -77.1000 MH 110 9 285
1854246N25300 1854 8 NA NA NOT_NAMED 1854-09-07 06:00:00 TS 27.6400 -77.6000 110 hurdat_atl main 253 221 O____________O hurdat_atl AL031854 27.2000 -77.6000 HU 110 3 28.3000 -77.6000 MH 110 10 296
1854246N25300 1854 8 NA NA NOT_NAMED 1854-09-07 09:00:00 TS 27.8806 -78.0837 main 221 193 P____________P AL031854 27.5998 -78.1004 HU 110 3 28.4422 -78.0505 MH 110 10 303
1854246N25300 1854 8 NA NA NOT_NAMED 1854-09-07 12:00:00 TS 28.2000 -78.5667 110 938 hurdat_atl main 188 136 O____________O hurdat_atl AL031854 28.0000 -78.6000 HU 110 938 3 28.6000 -78.5000 MH 110 938 11 307
1854246N25300 1854 8 NA NA NOT_NAMED 1854-09-07 15:00:00 TS 28.5451 -79.0916 main 136 103 P____________P AL031854 28.4000 -79.1226 HU 110 3 28.8352 -79.0297 MH 110 11 309
1854246N25300 1854 8 NA NA NOT_NAMED 1854-09-07 18:00:00 TS 28.9000 -79.5667 110 hurdat_atl main 98 93 O____________O hurdat_atl AL031854 28.8000 -79.6000 HU 110 3 29.1000 -79.5000 MH 110 10 314
1854246N25300 1854 8 NA NA NOT_NAMED 1854-09-07 21:00:00 TS 29.2448 -79.9336 main 93 81 P____________P AL031854 29.1999 -80.0027 HU 110 3 29.3347 -79.7954 MH 110 9 322
1854246N25300 1854 8 NA NA NOT_NAMED 1854-09-08 00:00:00 TS 29.6000 -80.2000 110 hurdat_atl main 87 84 O____________O hurdat_atl AL031854 29.6000 -80.3000 HU 110 3 29.6000 -80.0000 MH 110 8 332
1854246N25300 1854 8 NA NA NOT_NAMED 1854-09-08 03:00:00 TS 29.9832 -80.3920 main 89 87 P____________P AL031854 30.0073 -80.4804 HU 110 3 29.9350 -80.2150 MH 110 8 339
1854246N25300 1854 8 NA NA NOT_NAMED 1854-09-08 06:00:00 TS 30.3667 -80.5333 110 hurdat_atl main 92 66 O____________O hurdat_atl AL031854 30.4000 -80.6000 HU 110 3 30.3000 -80.4000 MH 110 8 341
1854246N25300 1854 8 NA NA NOT_NAMED 1854-09-08 09:00:00 TS 30.7367 -80.6934 main 66 57 P____________P AL031854 30.7725 -80.7575 HU 105 3 30.6650 -80.5650 MH 105 7 340
1854246N25300 1854 8 NA NA NOT_NAMED 1854-09-08 12:00:00 TS 31.0667 -80.8333 100 hurdat_atl main 52 28 O____________O hurdat_atl AL031854 31.1000 -80.9000 HU 100 3 31.0000 -80.7000 MH 100 7 340
1854246N25300 1854 8 NA NA NOT_NAMED 1854-09-08 15:00:00 TS 31.3483 -80.9582 main 28 18 P____________P AL031854 31.3862 -81.0298 HU 100 3 31.2725 -80.8151 MH 100 5 341
1854246N25300 1854 8 NA NA NOT_NAMED 1854-09-08 18:00:00 TS 31.5667 -81.0333 100 950 hurdat_atl main 18 18 O____________O hurdat_atl AL031854 31.6000 -81.1000 HU 100 950 3 31.5000 -80.9000 MH 100 950 4 348
1854246N25300 1854 8 NA NA NOT_NAMED 1854-09-08 20:00:00 TS 31.6786 -81.0363 100 950 hurdat_atl main 18 9 O____________P hurdat_atl AL031854 31.7000 -81.1000 L HU 100 950 3 31.6357 -80.9090 MH 100 950 4 354
1854246N25300 1854 8 NA NA NOT_NAMED 1854-09-08 21:00:00 TS 31.7427 -81.0588 main 9 0 P____________P AL031854 31.7641 -81.1317 HU 95 2 31.6998 -80.9129 MH 100 950 5 335
1854246N25300 1854 8 NA NA NOT_NAMED 1854-09-09 00:00:00 TS 31.9667 -81.2000 80 hurdat_atl main 0 0 O____________O hurdat_atl AL031854 32.0000 -81.3000 HU 80 1 31.9000 -81.0000 MH 100 950 5 329
1854246N25300 1854 8 NA NA NOT_NAMED 1854-09-09 03:00:00 TS 32.2042 -81.3838 main 0 0 P____________P AL031854 32.2312 -81.4233 HU 75 1 32.1502 -81.3047 MH 90 6 328
1854246N25300 1854 8 NA NA NOT_NAMED 1854-09-09 06:00:00 TS 32.4667 -81.5667 70 hurdat_atl main 0 0 O____________O hurdat_atl AL031854 32.5000 -81.5000 HU 70 1 32.4000 -81.7000 HU 80 6 329
1854246N25300 1854 8 NA NA NOT_NAMED 1854-09-09 09:00:00 TS 32.7265 -81.7551 main 0 0 P____________P AL031854 32.8047 -81.5888 HU 65 1 32.5701 -82.0877 HU 70 6 342
1854246N25300 1854 8 NA NA NOT_NAMED 1854-09-09 12:00:00 TS 33.0667 -81.8000 60 hurdat_atl main 0 0 O____________O hurdat_atl AL031854 33.2000 -81.5000 TS 60 0 32.8000 -82.4000 TS 60 8 7
1854246N25300 1854 8 NA NA NOT_NAMED 1854-09-09 15:00:00 TS 33.5473 -81.6414 main 0 0 P____________P AL031854 33.7110 -81.1784 TS 55 0 33.2198 -82.5674 TS 55 12 26
1854246N25300 1854 8 NA NA NOT_NAMED 1854-09-09 18:00:00 TS 34.1000 -81.2000 50 hurdat_atl main 0 0 O____________O hurdat_atl AL031854 34.3000 -80.5000 TS 50 0 33.7000 -82.6000 TS 50 16 45
1854246N25300 1854 8 NA NA NOT_NAMED 1854-09-09 21:00:00 TS 34.6717 -80.2911 main 0 0 P____________P AL031854 34.8868 -79.3906 TS 45 0 34.1226 -82.5279 TS 45 22 57
1854246N25300 1854 8 NA NA NOT_NAMED 1854-09-10 00:00:00 TS 35.3000 -78.9600 40 hurdat_atl main 0 0 O____________O hurdat_atl AL031854 35.5000 -78.1000 TS 40 0 34.5000 -82.4000 TS 40 27 60
1854246N25300 1854 8 NA NA NOT_NAMED 1854-09-10 03:00:00 TS 36.0297 -77.4434 main 0 0 P_____________ AL031854 36.1641 -76.9622 TS 40 0 TS 29 59
1854246N25300 1854 8 NA NA NOT_NAMED 1854-09-10 06:00:00 TS 36.8000 -75.9000 40 hurdat_atl main 8 8 O_____________ hurdat_atl AL031854 36.8000 -75.9000 TS 40 0 24 57
1854246N25300 1854 8 NA NA NOT_NAMED 1854-09-10 09:00:00 TS 37.3507 -74.9409 main 69 69 P_____________ AL031854 37.3507 -74.9409 TS 45 0 18 56
1854246N25300 1854 8 NA NA NOT_NAMED 1854-09-10 12:00:00 TS 37.8000 -74.0000 50 hurdat_atl main 111 111 O_____________ hurdat_atl AL031854 37.8000 -74.0000 TS 50 0 17 63
1854246N25300 1854 8 NA NA NOT_NAMED 1854-09-10 15:00:00 TS 38.1438 -72.9861 main 184 184 P_____________ AL031854 38.1438 -72.9861 TS 55 0 18 70
1854246N25300 1854 8 NA NA NOT_NAMED 1854-09-10 18:00:00 TS 38.4000 -71.9000 60 hurdat_atl main 240 240 O_____________ hurdat_atl AL031854 38.4000 -71.9000 TS 60 0 18 75
1854246N25300 1854 8 NA NA NOT_NAMED 1854-09-10 21:00:00 TS 38.6299 -70.7072 main 293 289 P_____________ AL031854 38.6299 -70.7072 TS 65 1 19 78
1854246N25300 1854 8 NA NA NOT_NAMED 1854-09-11 00:00:00 TS 38.8000 -69.5000 70 hurdat_atl main 317 317 O_____________ hurdat_atl AL031854 38.8000 -69.5000 HU 70 1 18 82
1854246N25300 1854 8 NA NA NOT_NAMED 1854-09-11 03:00:00 TS 38.8983 -68.3907 main 339 339 P_____________ AL031854 38.8983 -68.3907 HU 75 1 17 83
1854246N25300 1854 8 NA NA NOT_NAMED 1854-09-11 06:00:00 TS 39.0000 -67.3000 80 hurdat_atl main 377 377 O_____________ hurdat_atl AL031854 39.0000 -67.3000 HU 80 1 17 80
1854246N25300 1854 8 NA NA NOT_NAMED 1854-09-11 09:00:00 TS 39.2043 -66.2258 main 424 424 P_____________ AL031854 39.2043 -66.2258 HU 85 2 18 77
1854246N25300 1854 8 NA NA NOT_NAMED 1854-09-11 12:00:00 TS 39.4000 -65.0000 90 hurdat_atl main 456 456 O_____________ hurdat_atl AL031854 39.4000 -65.0000 HU 90 2 21 83
1854246N25300 1854 8 NA NA NOT_NAMED 1854-09-11 15:00:00 TS 39.4569 -63.4873 main 469 469 P_____________ AL031854 39.4569 -63.4873 HU 90 2 25 88
1854246N25300 1854 8 NA NA NOT_NAMED 1854-09-11 18:00:00 TS 39.5000 -61.8000 90 hurdat_atl main 531 531 O_____________ hurdat_atl AL031854 39.5000 -61.8000 HU 90 2 27 86
1854246N25300 1854 8 NA NA NOT_NAMED 1854-09-11 21:00:00 TS 39.6419 -60.0511 main 606 600 P_____________ AL031854 39.6419 -60.0511 HU 90 2 27 84
1854246N25300 1854 8 NA NA NOT_NAMED 1854-09-12 00:00:00 TS 39.8000 -58.3000 90 hurdat_atl main 642 642 O_____________ hurdat_atl AL031854 39.8000 -58.3000 HU 90 2 26 84
1854246N25300 1854 8 NA NA NOT_NAMED 1854-09-12 03:00:00 TS 39.9196 -56.6700 main 689 689 P_____________ AL031854 39.9196 -56.6700 HU 90 2 25 85
1854246N25300 1854 8 NA NA NOT_NAMED 1854-09-12 06:00:00 TS 40.0000 -55.1000 90 hurdat_atl main 743 733 O_____________ hurdat_atl AL031854 40.0000 -55.1000 HU 90 2 23 88
1854246N25300 1854 8 NA NA NOT_NAMED 1854-09-12 09:00:00 TS 39.9947 -53.6075 main 733 733 P_____________ AL031854 39.9947 -53.6075 HU 85 2 24 90
1854246N25300 1854 8 NA NA NOT_NAMED 1854-09-12 12:00:00 TS 40.0000 -52.0000 80 hurdat_atl main 740 740 O_____________ hurdat_atl AL031854 40.0000 -52.0000 HU 80 1 27 88
1854246N25300 1854 8 NA NA NOT_NAMED 1854-09-12 15:00:00 TS 40.0849 -50.0957 main 764 764 P_____________ AL031854 40.0849 -50.0957 HU 80 1 31 86
1854246N25300 1854 8 NA NA NOT_NAMED 1854-09-12 18:00:00 TS 40.2000 -48.0000 80 hurdat_atl main 825 O_____________ hurdat_atl AL031854 40.2000 -48.0000 HU 80 1 32 86

IBTrACS Databaseについて

本データベースは、米国NOAAが公開する1842年以降の世界の熱帯低気圧のベストトラックデータアーカイブInternational Best Track Archive for Climate Stewardship (IBTrACS)を、ウェブで閲覧しやすい形式に変換したものです。

最終更新日:2021-12-03